F/V Ville D'arzew 2 — FKTL — position and weather

sailwx.info

Track history (hours):
 
Tides and Currents Weather Stations Pressure Air Temp Water Temp Dewpoint Dewpoint Depression Visibility Wind Speed Wind Dir Waves Ship Positions

F/V Ville D'arzew 2

Last reported at 2017-Jun-04 10:19 UTC. Time now 2017-Jun-25 01:44 UTC.
Position N 41°04' E 002°23'.
Warning: this ship's position is 20 days out of date.

Length 32 m; draft 3.2 m.

Type: Fishing. MMSI: 227919000.

Date/timePositionNaut miles runAvg speedWind from/ knotsBaromVisibWave heightAir tempDewpointWater temp
2017-Jun-04 10:19N 41°04' E 002°23'712.0
2017-Jun-04 09:44N 40°59' E 002°18'312.0
2017-Jun-04 09:27N 40°56' E 002°15'612.1
2017-Jun-04 09:00N 40°52' E 002°10'612.2
2017-Jun-04 08:30N 40°48' E 002°05'612.0
2017-Jun-04 08:00N 40°43' E 001°60'611.8
2017-Jun-04 07:30N 40°39' E 001°54'611.4
2017-Jun-04 07:00N 40°34' E 001°50'611.2
2017-Jun-04 06:30N 40°30' E 001°46'611.2
2017-Jun-04 06:00N 40°25' E 001°41'611.1
2017-Jun-04 05:30N 40°20' E 001°37'611.3
2017-Jun-04 05:00N 40°16' E 001°33'611.3
2017-Jun-04 04:30N 40°11' E 001°29'611.5
2017-Jun-04 04:00N 40°07' E 001°24'611.6
2017-Jun-04 03:30N 40°02' E 001°19'611.7
2017-Jun-04 03:00N 39°57' E 001°16'611.7
2017-Jun-04 02:28N 39°51' E 001°13'711.6
2017-Jun-04 01:50N 39°44' E 001°10'107 3.5
2017-Jun-02 19:38N 38°02' E 000°31'1 6.1
2017-Jun-02 19:30N 38°01' E 000°31'17 3.5
2017-Jun-02 14:42N 37°50' E 000°15'  
2017-May-26 08:09N 38°30' E 000°50'1 5.7
2017-May-26 08:00N 38°30' E 000°50'4 8.8
2017-May-26 07:29N 38°25' E 000°52'510.3
2017-May-26 06:59N 38°21' E 000°55'3 5.7
2017-May-26 06:30N 38°22' E 000°59'1 1.1
2017-May-26 06:00N 38°22' E 000°59'2 3.3
2017-May-26 05:30N 38°20' E 000°58'3 5.9
2017-May-26 04:59N 38°21' E 001°02'8 5.3
2017-May-26 03:33N 38°21' E 000°52'0 6.5
2017-May-26 03:30N 38°21' E 000°53'3 6.3
2017-May-26 03:00N 38°21' E 000°57'3 3.9
2017-May-26 02:19N 38°23' E 000°59'3 1.7
2017-May-26 00:38N 38°24' E 000°56'111.5
2017-May-26 00:30N 38°26' E 000°56'611.8
2017-May-26 00:00N 38°32' E 000°56'611.8
2017-May-25 23:30N 38°38' E 000°56'1711.3
2017-May-25 21:58N 38°55' E 000°56'8411.6
2017-May-25 14:41N 40°19' E 000°58'911.4
2017-May-25 13:55N 40°28' E 000°59'511.4
2017-May-25 13:30N 40°33' E 000°59'  
Track history (hours):
 
Tides and Currents Weather Stations Pressure Air Temp Water Temp Dewpoint Dewpoint Depression Visibility Wind Speed Wind Dir Waves Ship Positions

F/V Ville D'arzew 2

Last reported at 2017-Jun-04 10:19 UTC. Time now 2017-Jun-25 01:44 UTC.
Position N 41°04' E 002°23'.
Warning: this ship's position is 20 days out of date.

Length 32 m; draft 3.2 m.

Type: Fishing. MMSI: 227919000.

Date/timePositionNaut miles runAvg speedWind from/ knotsBaromVisibWave heightAir tempDewpointWater temp
2017-Jun-04 10:19N 41°04' E 002°23'712.0
2017-Jun-04 09:44N 40°59' E 002°18'312.0
2017-Jun-04 09:27N 40°56' E 002°15'612.1
2017-Jun-04 09:00N 40°52' E 002°10'612.2
2017-Jun-04 08:30N 40°48' E 002°05'612.0
2017-Jun-04 08:00N 40°43' E 001°60'611.8
2017-Jun-04 07:30N 40°39' E 001°54'611.4
2017-Jun-04 07:00N 40°34' E 001°50'611.2
2017-Jun-04 06:30N 40°30' E 001°46'611.2
2017-Jun-04 06:00N 40°25' E 001°41'611.1
2017-Jun-04 05:30N 40°20' E 001°37'611.3
2017-Jun-04 05:00N 40°16' E 001°33'611.3
2017-Jun-04 04:30N 40°11' E 001°29'611.5
2017-Jun-04 04:00N 40°07' E 001°24'611.6
2017-Jun-04 03:30N 40°02' E 001°19'611.7
2017-Jun-04 03:00N 39°57' E 001°16'611.7
2017-Jun-04 02:28N 39°51' E 001°13'711.6
2017-Jun-04 01:50N 39°44' E 001°10'107 3.5
2017-Jun-02 19:38N 38°02' E 000°31'1 6.1
2017-Jun-02 19:30N 38°01' E 000°31'17 3.5
2017-Jun-02 14:42N 37°50' E 000°15'  
2017-May-26 08:09N 38°30' E 000°50'1 5.7
2017-May-26 08:00N 38°30' E 000°50'4 8.8
2017-May-26 07:29N 38°25' E 000°52'510.3
2017-May-26 06:59N 38°21' E 000°55'3 5.7
2017-May-26 06:30N 38°22' E 000°59'1 1.1
2017-May-26 06:00N 38°22' E 000°59'2 3.3
2017-May-26 05:30N 38°20' E 000°58'3 5.9
2017-May-26 04:59N 38°21' E 001°02'8 5.3
2017-May-26 03:33N 38°21' E 000°52'0 6.5
2017-May-26 03:30N 38°21' E 000°53'3 6.3
2017-May-26 03:00N 38°21' E 000°57'3 3.9
2017-May-26 02:19N 38°23' E 000°59'3 1.7
2017-May-26 00:38N 38°24' E 000°56'111.5
2017-May-26 00:30N 38°26' E 000°56'611.8
2017-May-26 00:00N 38°32' E 000°56'611.8
2017-May-25 23:30N 38°38' E 000°56'1711.3
2017-May-25 21:58N 38°55' E 000°56'8411.6
2017-May-25 14:41N 40°19' E 000°58'911.4
2017-May-25 13:55N 40°28' E 000°59'511.4
2017-May-25 13:30N 40°33' E 000°59'  

Dump ship's entire track history